Oostwold Airport

EHOW · Groninga, Paesi Bassi

6 ottobre 2022

Tempo Codice Tempo metereologico Temp. Vista Base nuvolosa Vento METAR/SPECI
01:20
L
14 °C 0 m - 230° 230° 7 kt METAR ETWM 052320Z AUTO 23007KT //// // ////// 14/11 Q1017 ///
00:20
L
14 °C 0 m - 240° 240° 8 kt METAR ETWM 052220Z AUTO 24008KT //// // ////// 14/11 Q1016 ///

5 ottobre 2022

Tempo Codice Tempo metereologico Temp. Vista Base nuvolosa Vento METAR/SPECI
23:20
L
14 °C 0 m - 260° 260° 12 - 27 kt METAR ETWM 052120Z AUTO 26012G27KT //// // ////// 14/12 Q1015 ///
22:20
L
17 °C 0 m - 220° 220° 11 - 23 kt METAR ETWM 052020Z AUTO 22011G23KT //// // ////// 17/11 Q1013 ///
21:20
L
17 °C 0 m - 210° 210° 9 kt METAR ETWM 051920Z AUTO 21009KT //// // ////// 17/10 Q1013 ///
20:20
L
18 °C 0 m - 220° 220° 11 - 22 kt METAR ETWM 051820Z AUTO 22011G22KT //// // ////// 18/11 Q1013 ///
19:20
L
18 °C 0 m - 230° 230° 8 kt METAR ETWM 051720Z AUTO 23008KT //// // ////// 18/13 Q1012 ///
18:20
L
19 °C 0 m - 200° 200° 5 kt METAR ETWM 051620Z AUTO 20005KT //// // ////// 19/13 Q1011 ///
17:20
L
19 °C 0 m - 210° 210° 7 kt METAR ETWM 051520Z AUTO 21007KT //// // ////// 19/12 Q1011 ///
16:20
V
19 °C 10 km+ 3.500 ft 200° 200° 9 kt METAR ETWM 051420Z 20009KT 9999 FEW027 BKN035 19/12 Q1011 BLU
15:20
M
18 °C 10 km+ 2.900 ft 210° 210° 9 - 19 kt METAR ETWM 051320Z 21009G19KT 9999 BKN029 18/12 Q1012 BLU
14:20
M
18 °C 10 km+ 2.700 ft 220° 220° 11 - 22 kt METAR ETWM 051220Z 22011G22KT 9999 BKN027 18/11 Q1012 BLU
13:20
M
17 °C 10 km+ 2.500 ft 210° 210° 10 - 23 kt METAR ETWM 051120Z 21010G23KT 9999 BKN025 17/11 Q1013 BLU
12:20
M
16 °C 10 km+ 2.500 ft 210° 210° 11 - 24 kt METAR ETWM 051020Z 21011G24KT 9999 BKN025 16/10 Q1013 BLU
11:20
M
16 °C 10 km+ 2.800 ft 200° 200° 11 - 22 kt METAR ETWM 050920Z 20011G22KT 9999 FEW020 BKN028 16/11 Q1014 BLU
10:20
M
15 °C 10 km+ 2.700 ft 200° 200° 8 kt METAR ETWM 050820Z 20008KT 9999 FEW018 BKN027 15/11 Q1014 BLU
09:20
M
14 °C 10 km+ 2.600 ft 200° 200° 7 kt METAR ETWM 050720Z 20007KT 9999 FEW015 BKN026 14/11 Q1014 BLU
08:20
M
14 °C 10 km+ 2.800 ft 190° 190° 7 kt METAR ETWM 050620Z 19007KT 9999 BKN028 14/11 Q1014 BLU
07:20
V
14 °C 10 km+ 3.000 ft 190° 190° 7 kt METAR ETWM 050520Z 19007KT 9999 BKN030 14/11 Q1014 BLU
06:20
V
14 °C 10 km+ 21.000 ft 200° 200° 6 kt METAR ETWM 050420Z 20006KT 9999 SCT027 SCT160 BKN210 14/11 Q1014 BLU+
05:20
L
14 °C 0 m - 190° 190° 4 kt METAR ETWM 050320Z AUTO 19004KT //// // ////// 14/11 Q1015 ///
04:20
L
15 °C 0 m - 190° 190° 5 kt METAR ETWM 050220Z AUTO 19005KT //// // ////// 15/11 Q1015 ///
03:20
L
15 °C 0 m - 200° 200° 5 kt METAR ETWM 050120Z AUTO 20005KT //// // ////// 15/11 Q1016 ///
02:20
L
15 °C 0 m - 200° 200° 5 kt METAR ETWM 050020Z AUTO 20005KT //// // ////// 15/10 Q1016 ///
01:20
L
15 °C 0 m - 200° 200° 4 kt METAR ETWM 042320Z AUTO 20004KT //// // ////// 15/10 Q1016 ///
00:20
L
15 °C 0 m - 200° 200° 5 kt METAR ETWM 042220Z AUTO 20005KT //// // ////// 15/10 Q1017 ///

4 ottobre 2022

Tempo Codice Tempo metereologico Temp. Vista Base nuvolosa Vento METAR/SPECI
23:20
L
15 °C 0 m - 200° 200° 5 kt METAR ETWM 042120Z AUTO 20005KT //// // ////// 15/09 Q1017 ///
22:20
L
15 °C 0 m - 190° 190° 6 kt METAR ETWM 042020Z AUTO 19006KT //// // ////// 15/09 Q1017 ///
21:20
L
14 °C 0 m - 180° 180° 5 kt METAR ETWM 041920Z AUTO 18005KT //// // ////// 14/09 Q1017 ///
20:20
L
12 °C 0 m - 180° 180° 3 kt METAR ETWM 041820Z AUTO 18003KT //// // ////// 12/10 Q1017 ///
19:20
L
13 °C 0 m - 180° 180° 3 kt METAR ETWM 041720Z AUTO 18003KT //// // ////// 13/10 Q1017 ///
18:20
L
15 °C 0 m - Var Var 3 kt METAR ETWM 041620Z AUTO VRB03KT //// // ////// 15/09 Q1018 ///
17:20
L
17 °C 0 m - 200° 200° 5 kt METAR ETWM 041520Z AUTO 20005KT //// // ////// 17/09 Q1018 ///
16:20
V
17 °C 10 km+ - 200° 200° 7 kt METAR ETWM 041420Z 20007KT 9999 FEW035 SCT360 17/08 Q1018 BLU+
15:20
V
18 °C 10 km+ - 200° 200° 8 kt METAR ETWM 041320Z 20008KT 9999 FEW035 SCT380 18/09 Q1018 BLU+
14:20
V
17 °C 10 km+ - 200° 200° 8 kt METAR ETWM 041220Z 20008KT 9999 FEW030 17/09 Q1019 BLU+
13:20
V
17 °C 10 km+ - 200° 200° 9 kt METAR ETWM 041120Z 20009KT 9999 FEW026 17/10 Q1019 BLU+
12:20
V
16 °C 10 km+ - 200° 200° 7 kt METAR ETWM 041020Z 20007KT 9999 FEW021 SCT360 16/10 Q1020 BLU+
11:20
V
14 °C 10 km+ - 180° 180° 6 kt METAR ETWM 040920Z 18006KT 9999 FEW018 SCT200 14/10 Q1020 BLU+
10:20
V
13 °C 10 km+ - 170° 170° 5 kt METAR ETWM 040820Z 17005KT 9999 FEW050 SCT160 13/09 Q1020 BLU+
09:20
V
11 °C 10 km+ - 170° 170° 4 kt METAR ETWM 040720Z 17004KT 9999 FEW050 SCT210 11/10 Q1021 BLU+
08:20
V
10 °C 10 km+ 32.000 ft 180° 180° 3 kt METAR ETWM 040620Z 18003KT 9999 MIFG FEW050 BKN320 10/09 Q1020 BLU+
07:20
V
10 °C 10 km+ 16.000 ft 170° 170° 3 kt METAR ETWM 040520Z 17003KT 9999 MIFG FEW050 SCT140 BKN160 10/09 Q1021 BLU
06:20
V
10 °C 10 km+ 15.000 ft Var Var 2 kt METAR ETWM 040420Z VRB02KT 9999 FEW050 BKN150 10/10 Q1021 BLU
05:20
L
10 °C 0 m - Var Var 2 kt METAR ETWM 040320Z AUTO VRB02KT //// // ////// 10/10 Q1021 ///
04:20
L
10 °C 0 m - 190° 190° 2 kt METAR ETWM 040220Z AUTO 19002KT //// // ////// 10/10 Q1022 ///
03:20
L
10 °C 0 m - 200° 200° 2 kt METAR ETWM 040120Z AUTO 20002KT //// // ////// 10/10 Q1022 ///
02:20
L
10 °C 0 m - 190° 190° 2 kt METAR ETWM 040020Z AUTO 19002KT //// // ////// 10/10 Q1023 ///
01:20
L
10 °C 0 m - 190° 190° 1 kt METAR ETWM 032320Z AUTO 19001KT //// // ////// 10/10 Q1023 ///
00:20
L
10 °C 0 m - 190° 190° 1 kt METAR ETWM 032220Z AUTO 19001KT //// // ////// 10/10 Q1024 ///

3 ottobre 2022

Tempo Codice Tempo metereologico Temp. Vista Base nuvolosa Vento METAR/SPECI
23:20
L
11 °C 0 m - 240° 240° 2 kt METAR ETWM 032120Z AUTO 24002KT //// // ////// 11/10 Q1024 ///
22:20
L
11 °C 0 m - 230° 230° 2 kt METAR ETWM 032020Z AUTO 23002KT //// // ////// 11/10 Q1024 ///
21:20
L
10 °C 0 m - 230° 230° 1 kt METAR ETWM 031920Z AUTO 23001KT //// // ////// 10/10 Q1024 ///
20:20
L
11 °C 0 m - Var 000° 0 kt METAR ETWM 031820Z AUTO 00000KT //// // ////// 11/10 Q1024 ///
19:20
L
13 °C 0 m - 240° 240° 1 kt METAR ETWM 031720Z AUTO 24001KT //// // ////// 13/11 Q1024 ///
18:20
L
15 °C 0 m - 270° 270° 2 kt METAR ETWM 031620Z AUTO 27002KT //// // ////// 15/11 Q1025 ///
17:20
L
16 °C 0 m - Var Var 3 kt METAR ETWM 031520Z AUTO VRB03KT //// // ////// 16/10 Q1025 ///
Dati più vecchi

Noi e le terze parti seguiamo il tuo comportamento in internet sul nostro sito web con i cookie. Se continui, riteniamo che tu sia d'accordo con la nostra politica sui cookie. Per saperne di più